sensor_id;sensor_type;location;lat;lon;timestamp;P1;durP1;ratioP1;P2;durP2;ratioP2
14484;SDS011;7328;50.812;4.422;2022-08-19T00:01:13;9.40;;;8.80;;
14484;SDS011;7328;50.812;4.422;2022-08-19T00:03:39;17.33;;;15.73;;
14484;SDS011;7328;50.812;4.422;2022-08-19T00:06:05;19.80;;;17.87;;
14484;SDS011;7328;50.812;4.422;2022-08-19T00:08:30;20.57;;;18.73;;
14484;SDS011;7328;50.812;4.422;2022-08-19T00:10:57;21.10;;;19.03;;
14484;SDS011;7328;50.812;4.422;2022-08-19T00:13:23;22.23;;;19.07;;
14484;SDS011;7328;50.812;4.422;2022-08-19T00:15:48;20.70;;;18.70;;
14484;SDS011;7328;50.812;4.422;2022-08-19T00:18:14;24.27;;;21.67;;
14484;SDS011;7328;50.812;4.422;2022-08-19T00:20:40;33.57;;;27.77;;
14484;SDS011;7328;50.812;4.422;2022-08-19T00:23:06;30.47;;;27.17;;
14484;SDS011;7328;50.812;4.422;2022-08-19T00:25:32;30.60;;;27.40;;
14484;SDS011;7328;50.812;4.422;2022-08-19T00:27:58;34.47;;;30.40;;
14484;SDS011;7328;50.812;4.422;2022-08-19T00:30:24;35.17;;;30.23;;
14484;SDS011;7328;50.812;4.422;2022-08-19T00:32:52;38.13;;;34.10;;
14484;SDS011;7328;50.812;4.422;2022-08-19T00:35:20;39.87;;;32.83;;
14484;SDS011;7328;50.812;4.422;2022-08-19T00:37:47;42.80;;;35.23;;
14484;SDS011;7328;50.812;4.422;2022-08-19T00:40:14;39.87;;;34.10;;
14484;SDS011;7328;50.812;4.422;2022-08-19T00:42:41;42.77;;;33.43;;
14484;SDS011;7328;50.812;4.422;2022-08-19T00:45:18;39.43;;;32.60;;
14484;SDS011;7328;50.812;4.422;2022-08-19T00:47:46;44.07;;;36.00;;
14484;SDS011;7328;50.812;4.422;2022-08-19T00:50:12;51.67;;;39.20;;
14484;SDS011;7328;50.812;4.422;2022-08-19T00:52:42;40.13;;;35.47;;
14484;SDS011;7328;50.812;4.422;2022-08-19T00:55:16;43.63;;;37.60;;
14484;SDS011;7328;50.812;4.422;2022-08-19T00:57:46;41.27;;;36.60;;
14484;SDS011;7328;50.812;4.422;2022-08-19T01:00:19;47.90;;;38.53;;
14484;SDS011;7328;50.812;4.422;2022-08-19T01:02:47;45.23;;;35.57;;
14484;SDS011;7328;50.812;4.422;2022-08-19T01:05:14;44.10;;;37.03;;
14484;SDS011;7328;50.812;4.422;2022-08-19T01:07:45;44.40;;;39.43;;
14484;SDS011;7328;50.812;4.422;2022-08-19T01:10:17;47.87;;;36.30;;
14484;SDS011;7328;50.812;4.422;2022-08-19T01:12:46;49.43;;;38.40;;
14484;SDS011;7328;50.812;4.422;2022-08-19T01:15:16;43.73;;;38.10;;
14484;SDS011;7328;50.812;4.422;2022-08-19T01:17:46;45.33;;;35.70;;
14484;SDS011;7328;50.812;4.422;2022-08-19T01:20:13;38.33;;;33.97;;
14484;SDS011;7328;50.812;4.422;2022-08-19T01:22:43;37.03;;;31.67;;
14484;SDS011;7328;50.812;4.422;2022-08-19T01:25:15;38.40;;;32.47;;
14484;SDS011;7328;50.812;4.422;2022-08-19T01:27:44;37.97;;;33.87;;
14484;SDS011;7328;50.812;4.422;2022-08-19T01:30:18;41.00;;;32.63;;
14484;SDS011;7328;50.812;4.422;2022-08-19T01:32:47;36.93;;;32.37;;
14484;SDS011;7328;50.812;4.422;2022-08-19T01:35:14;31.27;;;28.00;;
14484;SDS011;7328;50.812;4.422;2022-08-19T01:37:47;32.67;;;29.00;;
14484;SDS011;7328;50.812;4.422;2022-08-19T01:40:16;34.43;;;29.20;;
14484;SDS011;7328;50.812;4.422;2022-08-19T01:42:44;31.37;;;28.07;;
14484;SDS011;7328;50.812;4.422;2022-08-19T01:45:10;36.53;;;28.73;;
14484;SDS011;7328;50.812;4.422;2022-08-19T01:47:36;31.87;;;28.80;;
14484;SDS011;7328;50.812;4.422;2022-08-19T01:50:03;30.57;;;27.43;;
14484;SDS011;7328;50.812;4.422;2022-08-19T01:52:30;30.60;;;27.07;;
14484;SDS011;7328;50.812;4.422;2022-08-19T01:54:56;31.07;;;27.77;;
14484;SDS011;7328;50.812;4.422;2022-08-19T01:57:22;31.00;;;27.63;;
14484;SDS011;7328;50.812;4.422;2022-08-19T01:59:48;32.33;;;28.97;;
14484;SDS011;7328;50.812;4.422;2022-08-19T02:02:15;30.37;;;26.90;;
14484;SDS011;7328;50.812;4.422;2022-08-19T02:04:40;31.50;;;28.20;;
14484;SDS011;7328;50.812;4.422;2022-08-19T02:07:07;32.80;;;26.73;;
14484;SDS011;7328;50.812;4.422;2022-08-19T02:09:33;26.83;;;24.17;;
14484;SDS011;7328;50.812;4.422;2022-08-19T02:12:00;29.60;;;26.47;;
14484;SDS011;7328;50.812;4.422;2022-08-19T02:14:25;27.20;;;24.40;;
14484;SDS011;7328;50.812;4.422;2022-08-19T02:16:52;28.90;;;26.00;;
14484;SDS011;7328;50.812;4.422;2022-08-19T02:19:17;25.63;;;23.00;;
14484;SDS011;7328;50.812;4.422;2022-08-19T02:21:43;25.20;;;22.60;;
14484;SDS011;7328;50.812;4.422;2022-08-19T02:24:09;26.77;;;23.17;;
14484;SDS011;7328;50.812;4.422;2022-08-19T02:26:35;26.90;;;24.10;;
14484;SDS011;7328;50.812;4.422;2022-08-19T02:29:01;26.40;;;23.70;;
14484;SDS011;7328;50.812;4.422;2022-08-19T02:31:27;29.67;;;25.50;;
14484;SDS011;7328;50.812;4.422;2022-08-19T02:33:53;28.67;;;25.87;;
14484;SDS011;7328;50.812;4.422;2022-08-19T02:36:20;29.60;;;24.83;;
14484;SDS011;7328;50.812;4.422;2022-08-19T02:38:46;28.33;;;25.37;;
14484;SDS011;7328;50.812;4.422;2022-08-19T02:41:17;25.20;;;22.73;;
14484;SDS011;7328;50.812;4.422;2022-08-19T02:43:45;28.00;;;25.00;;
14484;SDS011;7328;50.812;4.422;2022-08-19T02:46:18;29.30;;;24.77;;
14484;SDS011;7328;50.812;4.422;2022-08-19T02:48:53;27.37;;;24.47;;
14484;SDS011;7328;50.812;4.422;2022-08-19T02:51:26;25.67;;;22.97;;
14484;SDS011;7328;50.812;4.422;2022-08-19T02:53:54;27.23;;;23.53;;
14484;SDS011;7328;50.812;4.422;2022-08-19T02:56:20;26.60;;;24.07;;
14484;SDS011;7328;50.812;4.422;2022-08-19T02:58:46;24.47;;;21.87;;
14484;SDS011;7328;50.812;4.422;2022-08-19T03:01:21;26.03;;;23.50;;
14484;SDS011;7328;50.812;4.422;2022-08-19T03:03:55;26.40;;;23.47;;
14484;SDS011;7328;50.812;4.422;2022-08-19T03:06:22;25.00;;;21.17;;
14484;SDS011;7328;50.812;4.422;2022-08-19T03:08:48;25.53;;;22.77;;
14484;SDS011;7328;50.812;4.422;2022-08-19T03:11:15;25.63;;;20.63;;
14484;SDS011;7328;50.812;4.422;2022-08-19T03:13:44;38.00;;;21.73;;
14484;SDS011;7328;50.812;4.422;2022-08-19T03:16:10;25.63;;;22.37;;
14484;SDS011;7328;50.812;4.422;2022-08-19T03:18:36;29.77;;;22.13;;
14484;SDS011;7328;50.812;4.422;2022-08-19T03:21:02;25.37;;;21.53;;
14484;SDS011;7328;50.812;4.422;2022-08-19T03:23:28;24.27;;;21.63;;
14484;SDS011;7328;50.812;4.422;2022-08-19T03:25:54;24.87;;;20.17;;
14484;SDS011;7328;50.812;4.422;2022-08-19T03:28:20;25.67;;;20.97;;
14484;SDS011;7328;50.812;4.422;2022-08-19T03:30:56;23.07;;;20.33;;
14484;SDS011;7328;50.812;4.422;2022-08-19T03:33:26;22.47;;;20.07;;
14484;SDS011;7328;50.812;4.422;2022-08-19T03:36:03;28.23;;;22.10;;
14484;SDS011;7328;50.812;4.422;2022-08-19T03:38:30;26.53;;;19.77;;
14484;SDS011;7328;50.812;4.422;2022-08-19T03:40:57;22.37;;;20.07;;
14484;SDS011;7328;50.812;4.422;2022-08-19T03:43:23;27.33;;;20.50;;
14484;SDS011;7328;50.812;4.422;2022-08-19T03:45:58;26.50;;;20.17;;
14484;SDS011;7328;50.812;4.422;2022-08-19T03:48:29;24.60;;;20.07;;
14484;SDS011;7328;50.812;4.422;2022-08-19T03:50:56;24.80;;;19.10;;
14484;SDS011;7328;50.812;4.422;2022-08-19T03:53:23;24.30;;;20.93;;
14484;SDS011;7328;50.812;4.422;2022-08-19T03:55:49;22.27;;;19.30;;
14484;SDS011;7328;50.812;4.422;2022-08-19T03:58:15;24.97;;;21.57;;
14484;SDS011;7328;50.812;4.422;2022-08-19T04:00:42;23.37;;;20.97;;
14484;SDS011;7328;50.812;4.422;2022-08-19T04:03:08;43.10;;;24.03;;
14484;SDS011;7328;50.812;4.422;2022-08-19T04:05:33;27.00;;;20.33;;
14484;SDS011;7328;50.812;4.422;2022-08-19T04:07:59;26.63;;;22.47;;
14484;SDS011;7328;50.812;4.422;2022-08-19T04:10:25;24.07;;;21.23;;
14484;SDS011;7328;50.812;4.422;2022-08-19T04:12:53;25.03;;;20.43;;
14484;SDS011;7328;50.812;4.422;2022-08-19T04:15:19;31.03;;;22.30;;
14484;SDS011;7328;50.812;4.422;2022-08-19T04:17:45;25.23;;;21.33;;
14484;SDS011;7328;50.812;4.422;2022-08-19T04:20:11;24.83;;;22.30;;
14484;SDS011;7328;50.812;4.422;2022-08-19T04:22:37;24.20;;;19.90;;
14484;SDS011;7328;50.812;4.422;2022-08-19T04:25:03;24.77;;;19.57;;
14484;SDS011;7328;50.812;4.422;2022-08-19T04:27:29;28.57;;;20.00;;
14484;SDS011;7328;50.812;4.422;2022-08-19T04:29:56;23.70;;;19.07;;
14484;SDS011;7328;50.812;4.422;2022-08-19T04:32:22;28.97;;;22.10;;
14484;SDS011;7328;50.812;4.422;2022-08-19T04:34:48;25.83;;;22.43;;
14484;SDS011;7328;50.812;4.422;2022-08-19T04:37:14;24.77;;;20.53;;
14484;SDS011;7328;50.812;4.422;2022-08-19T04:39:40;28.60;;;20.37;;
14484;SDS011;7328;50.812;4.422;2022-08-19T04:42:24;34.50;;;21.43;;
14484;SDS011;7328;50.812;4.422;2022-08-19T04:45:06;27.33;;;20.47;;
14484;SDS011;7328;50.812;4.422;2022-08-19T04:47:38;29.10;;;20.60;;
14484;SDS011;7328;50.812;4.422;2022-08-19T04:50:06;32.80;;;20.70;;
14484;SDS011;7328;50.812;4.422;2022-08-19T04:52:33;32.33;;;21.17;;
14484;SDS011;7328;50.812;4.422;2022-08-19T04:54:59;25.43;;;20.73;;
14484;SDS011;7328;50.812;4.422;2022-08-19T04:57:25;25.47;;;21.23;;
14484;SDS011;7328;50.812;4.422;2022-08-19T04:59:54;24.30;;;19.10;;
14484;SDS011;7328;50.812;4.422;2022-08-19T05:02:21;30.70;;;21.30;;
14484;SDS011;7328;50.812;4.422;2022-08-19T05:04:55;20.37;;;17.93;;
14484;SDS011;7328;50.812;4.422;2022-08-19T05:07:22;23.40;;;20.90;;
14484;SDS011;7328;50.812;4.422;2022-08-19T05:09:48;28.53;;;20.57;;
14484;SDS011;7328;50.812;4.422;2022-08-19T05:12:13;24.73;;;19.60;;
14484;SDS011;7328;50.812;4.422;2022-08-19T05:14:40;28.73;;;21.40;;
14484;SDS011;7328;50.812;4.422;2022-08-19T05:17:06;35.83;;;20.70;;
14484;SDS011;7328;50.812;4.422;2022-08-19T05:19:32;25.30;;;20.13;;
14484;SDS011;7328;50.812;4.422;2022-08-19T05:22:16;23.33;;;19.77;;
14484;SDS011;7328;50.812;4.422;2022-08-19T05:25:01;31.93;;;21.33;;
14484;SDS011;7328;50.812;4.422;2022-08-19T05:27:37;24.00;;;21.53;;
14484;SDS011;7328;50.812;4.422;2022-08-19T05:30:03;20.93;;;18.37;;
14484;SDS011;7328;50.812;4.422;2022-08-19T05:32:30;24.20;;;19.40;;
14484;SDS011;7328;50.812;4.422;2022-08-19T05:34:56;29.33;;;20.57;;
14484;SDS011;7328;50.812;4.422;2022-08-19T05:37:22;26.90;;;22.07;;
14484;SDS011;7328;50.812;4.422;2022-08-19T05:39:48;23.83;;;20.33;;
14484;SDS011;7328;50.812;4.422;2022-08-19T05:42:14;30.47;;;21.13;;
14484;SDS011;7328;50.812;4.422;2022-08-19T05:44:42;23.90;;;18.83;;
14484;SDS011;7328;50.812;4.422;2022-08-19T05:47:09;25.30;;;19.93;;
14484;SDS011;7328;50.812;4.422;2022-08-19T05:49:36;19.00;;;16.97;;
14484;SDS011;7328;50.812;4.422;2022-08-19T05:52:03;22.83;;;17.60;;
14484;SDS011;7328;50.812;4.422;2022-08-19T05:54:30;19.87;;;16.70;;
14484;SDS011;7328;50.812;4.422;2022-08-19T05:56:56;21.67;;;15.47;;
14484;SDS011;7328;50.812;4.422;2022-08-19T05:59:22;18.90;;;15.47;;
14484;SDS011;7328;50.812;4.422;2022-08-19T06:01:49;14.83;;;13.13;;
14484;SDS011;7328;50.812;4.422;2022-08-19T06:04:17;14.97;;;13.37;;
14484;SDS011;7328;50.812;4.422;2022-08-19T06:06:45;13.73;;;12.43;;
14484;SDS011;7328;50.812;4.422;2022-08-19T06:09:11;21.17;;;14.30;;
14484;SDS011;7328;50.812;4.422;2022-08-19T06:11:48;14.80;;;11.03;;
14484;SDS011;7328;50.812;4.422;2022-08-19T06:14:20;11.67;;;10.23;;
14484;SDS011;7328;50.812;4.422;2022-08-19T06:16:47;16.60;;;10.90;;
14484;SDS011;7328;50.812;4.422;2022-08-19T06:19:15;10.30;;;9.30;;
14484;SDS011;7328;50.812;4.422;2022-08-19T06:21:44;16.40;;;9.97;;
14484;SDS011;7328;50.812;4.422;2022-08-19T06:24:13;11.70;;;9.03;;
14484;SDS011;7328;50.812;4.422;2022-08-19T06:26:41;12.73;;;10.00;;
14484;SDS011;7328;50.812;4.422;2022-08-19T06:29:09;15.63;;;10.83;;
14484;SDS011;7328;50.812;4.422;2022-08-19T06:31:36;14.93;;;9.83;;
14484;SDS011;7328;50.812;4.422;2022-08-19T06:34:05;11.30;;;9.13;;
14484;SDS011;7328;50.812;4.422;2022-08-19T06:36:36;10.00;;;9.00;;
14484;SDS011;7328;50.812;4.422;2022-08-19T06:39:12;15.63;;;8.63;;
14484;SDS011;7328;50.812;4.422;2022-08-19T06:41:46;9.70;;;7.80;;
14484;SDS011;7328;50.812;4.422;2022-08-19T06:44:13;8.30;;;7.47;;
14484;SDS011;7328;50.812;4.422;2022-08-19T06:46:40;9.60;;;8.10;;
14484;SDS011;7328;50.812;4.422;2022-08-19T06:49:06;9.47;;;8.43;;
14484;SDS011;7328;50.812;4.422;2022-08-19T06:51:39;8.47;;;7.60;;
14484;SDS011;7328;50.812;4.422;2022-08-19T06:54:06;12.10;;;7.80;;
14484;SDS011;7328;50.812;4.422;2022-08-19T06:56:32;12.93;;;7.77;;
14484;SDS011;7328;50.812;4.422;2022-08-19T06:59:03;9.33;;;8.13;;
14484;SDS011;7328;50.812;4.422;2022-08-19T07:01:34;7.43;;;6.73;;
14484;SDS011;7328;50.812;4.422;2022-08-19T07:04:03;10.47;;;7.43;;
14484;SDS011;7328;50.812;4.422;2022-08-19T07:06:30;9.43;;;7.13;;
14484;SDS011;7328;50.812;4.422;2022-08-19T07:08:56;9.70;;;8.07;;
14484;SDS011;7328;50.812;4.422;2022-08-19T07:11:23;8.37;;;7.43;;
14484;SDS011;7328;50.812;4.422;2022-08-19T07:13:49;10.33;;;8.07;;
14484;SDS011;7328;50.812;4.422;2022-08-19T07:16:17;10.33;;;8.83;;
14484;SDS011;7328;50.812;4.422;2022-08-19T07:18:47;10.60;;;8.27;;
14484;SDS011;7328;50.812;4.422;2022-08-19T07:21:16;8.07;;;7.37;;
14484;SDS011;7328;50.812;4.422;2022-08-19T07:23:45;11.17;;;9.50;;
14484;SDS011;7328;50.812;4.422;2022-08-19T07:26:15;16.00;;;7.73;;
14484;SDS011;7328;50.812;4.422;2022-08-19T07:28:44;9.23;;;6.97;;
14484;SDS011;7328;50.812;4.422;2022-08-19T07:31:12;11.57;;;6.87;;
14484;SDS011;7328;50.812;4.422;2022-08-19T07:33:40;8.60;;;7.60;;
14484;SDS011;7328;50.812;4.422;2022-08-19T07:36:08;11.77;;;8.10;;
14484;SDS011;7328;50.812;4.422;2022-08-19T07:38:39;9.23;;;6.47;;
14484;SDS011;7328;50.812;4.422;2022-08-19T07:41:08;10.07;;;7.07;;
14484;SDS011;7328;50.812;4.422;2022-08-19T07:43:36;9.83;;;7.97;;
14484;SDS011;7328;50.812;4.422;2022-08-19T07:46:03;7.07;;;6.40;;
14484;SDS011;7328;50.812;4.422;2022-08-19T07:48:29;12.33;;;8.50;;
14484;SDS011;7328;50.812;4.422;2022-08-19T07:50:56;11.70;;;7.40;;
14484;SDS011;7328;50.812;4.422;2022-08-19T07:53:27;9.93;;;6.87;;
14484;SDS011;7328;50.812;4.422;2022-08-19T07:55:53;14.93;;;6.73;;
14484;SDS011;7328;50.812;4.422;2022-08-19T07:58:20;8.00;;;5.83;;
14484;SDS011;7328;50.812;4.422;2022-08-19T08:00:48;6.70;;;6.10;;
14484;SDS011;7328;50.812;4.422;2022-08-19T08:03:16;8.07;;;6.43;;
14484;SDS011;7328;50.812;4.422;2022-08-19T08:05:43;7.40;;;6.77;;
14484;SDS011;7328;50.812;4.422;2022-08-19T08:08:28;6.53;;;5.47;;
14484;SDS011;7328;50.812;4.422;2022-08-19T08:11:16;6.90;;;6.33;;
14484;SDS011;7328;50.812;4.422;2022-08-19T08:13:43;6.93;;;5.70;;
14484;SDS011;7328;50.812;4.422;2022-08-19T08:16:09;6.33;;;5.73;;
14484;SDS011;7328;50.812;4.422;2022-08-19T08:18:35;8.37;;;5.53;;
14484;SDS011;7328;50.812;4.422;2022-08-19T08:21:06;6.63;;;5.63;;
14484;SDS011;7328;50.812;4.422;2022-08-19T08:23:32;5.07;;;4.33;;
14484;SDS011;7328;50.812;4.422;2022-08-19T08:25:58;8.10;;;6.37;;
14484;SDS011;7328;50.812;4.422;2022-08-19T08:28:24;6.10;;;4.60;;
14484;SDS011;7328;50.812;4.422;2022-08-19T08:30:51;9.40;;;5.90;;
14484;SDS011;7328;50.812;4.422;2022-08-19T08:33:20;9.80;;;4.97;;
14484;SDS011;7328;50.812;4.422;2022-08-19T08:35:48;4.90;;;4.53;;
14484;SDS011;7328;50.812;4.422;2022-08-19T08:38:14;4.97;;;4.43;;
14484;SDS011;7328;50.812;4.422;2022-08-19T08:40:45;4.40;;;3.97;;
14484;SDS011;7328;50.812;4.422;2022-08-19T08:45:47;4.00;;;3.67;;
14484;SDS011;7328;50.812;4.422;2022-08-19T08:48:38;8.47;;;4.23;;
14484;SDS011;7328;50.812;4.422;2022-08-19T08:51:16;5.37;;;3.67;;
14484;SDS011;7328;50.812;4.422;2022-08-19T08:53:49;5.50;;;3.93;;
14484;SDS011;7328;50.812;4.422;2022-08-19T08:56:17;4.70;;;4.13;;
14484;SDS011;7328;50.812;4.422;2022-08-19T08:58:46;4.87;;;3.57;;
14484;SDS011;7328;50.812;4.422;2022-08-19T09:01:22;8.60;;;4.73;;
14484;SDS011;7328;50.812;4.422;2022-08-19T09:03:48;8.73;;;3.83;;
14484;SDS011;7328;50.812;4.422;2022-08-19T09:17:03;7.07;;;4.37;;
14484;SDS011;7328;50.812;4.422;2022-08-19T09:19:33;7.57;;;5.43;;
14484;SDS011;7328;50.812;4.422;2022-08-19T09:22:01;4.73;;;4.30;;
14484;SDS011;7328;50.812;4.422;2022-08-19T09:24:27;6.43;;;4.50;;
14484;SDS011;7328;50.812;4.422;2022-08-19T09:26:52;6.70;;;5.60;;
14484;SDS011;7328;50.812;4.422;2022-08-19T09:29:18;5.97;;;4.20;;
14484;SDS011;7328;50.812;4.422;2022-08-19T09:31:45;4.73;;;4.33;;
14484;SDS011;7328;50.812;4.422;2022-08-19T09:34:11;6.07;;;4.17;;
14484;SDS011;7328;50.812;4.422;2022-08-19T09:36:37;4.13;;;3.73;;
14484;SDS011;7328;50.812;4.422;2022-08-19T09:39:04;4.10;;;3.67;;
14484;SDS011;7328;50.812;4.422;2022-08-19T09:41:31;5.27;;;4.70;;
14484;SDS011;7328;50.812;4.422;2022-08-19T09:43:58;7.60;;;4.73;;
14484;SDS011;7328;50.812;4.422;2022-08-19T09:46:27;4.60;;;4.13;;
14484;SDS011;7328;50.812;4.422;2022-08-19T09:48:54;5.03;;;4.67;;
14484;SDS011;7328;50.812;4.422;2022-08-19T09:51:22;5.17;;;4.63;;
14484;SDS011;7328;50.812;4.422;2022-08-19T09:53:49;7.30;;;5.40;;
14484;SDS011;7328;50.812;4.422;2022-08-19T09:56:17;6.83;;;5.20;;
14484;SDS011;7328;50.812;4.422;2022-08-19T09:58:44;5.33;;;4.50;;
14484;SDS011;7328;50.812;4.422;2022-08-19T10:01:15;7.80;;;3.73;;
14484;SDS011;7328;50.812;4.422;2022-08-19T10:03:48;4.40;;;4.00;;
14484;SDS011;7328;50.812;4.422;2022-08-19T10:06:16;4.43;;;3.57;;
14484;SDS011;7328;50.812;4.422;2022-08-19T10:08:42;5.77;;;4.53;;
14484;SDS011;7328;50.812;4.422;2022-08-19T10:11:09;4.93;;;4.43;;
14484;SDS011;7328;50.812;4.422;2022-08-19T10:13:35;13.77;;;5.27;;
14484;SDS011;7328;50.812;4.422;2022-08-19T10:16:03;5.07;;;3.90;;
14484;SDS011;7328;50.812;4.422;2022-08-19T10:18:31;3.87;;;3.30;;
14484;SDS011;7328;50.812;4.422;2022-08-19T10:21:09;3.73;;;3.43;;
14484;SDS011;7328;50.812;4.422;2022-08-19T10:23:36;4.90;;;4.40;;
14484;SDS011;7328;50.812;4.422;2022-08-19T10:26:04;4.73;;;3.97;;
14484;SDS011;7328;50.812;4.422;2022-08-19T10:28:35;5.13;;;4.00;;
14484;SDS011;7328;50.812;4.422;2022-08-19T10:31:05;5.30;;;4.30;;
14484;SDS011;7328;50.812;4.422;2022-08-19T10:33:33;5.53;;;5.13;;
14484;SDS011;7328;50.812;4.422;2022-08-19T10:36:00;5.20;;;4.83;;
14484;SDS011;7328;50.812;4.422;2022-08-19T10:38:28;6.37;;;5.60;;
14484;SDS011;7328;50.812;4.422;2022-08-19T10:40:54;9.63;;;7.13;;
14484;SDS011;7328;50.812;4.422;2022-08-19T10:43:20;5.73;;;5.23;;
14484;SDS011;7328;50.812;4.422;2022-08-19T10:45:51;5.90;;;4.60;;
14484;SDS011;7328;50.812;4.422;2022-08-19T10:48:20;6.70;;;5.60;;
14484;SDS011;7328;50.812;4.422;2022-08-19T10:50:46;6.73;;;5.37;;
14484;SDS011;7328;50.812;4.422;2022-08-19T10:53:30;5.33;;;4.60;;
14484;SDS011;7328;50.812;4.422;2022-08-19T10:55:55;5.73;;;5.23;;
14484;SDS011;7328;50.812;4.422;2022-08-19T10:58:50;6.20;;;5.60;;
14484;SDS011;7328;50.812;4.422;2022-08-19T11:01:16;7.07;;;6.47;;
14484;SDS011;7328;50.812;4.422;2022-08-19T11:03:43;6.50;;;6.00;;
14484;SDS011;7328;50.812;4.422;2022-08-19T11:06:10;8.00;;;7.27;;
14484;SDS011;7328;50.812;4.422;2022-08-19T11:08:36;8.13;;;6.27;;
14484;SDS011;7328;50.812;4.422;2022-08-19T11:11:03;6.93;;;6.33;;
14484;SDS011;7328;50.812;4.422;2022-08-19T11:13:30;6.33;;;5.83;;
14484;SDS011;7328;50.812;4.422;2022-08-19T11:16:03;6.83;;;6.23;;
14484;SDS011;7328;50.812;4.422;2022-08-19T11:18:32;6.10;;;5.60;;
14484;SDS011;7328;50.812;4.422;2022-08-19T11:21:13;9.53;;;7.63;;
14484;SDS011;7328;50.812;4.422;2022-08-19T11:23:39;7.47;;;6.87;;
14484;SDS011;7328;50.812;4.422;2022-08-19T11:26:05;9.30;;;8.33;;
14484;SDS011;7328;50.812;4.422;2022-08-19T11:28:31;10.03;;;7.50;;
14484;SDS011;7328;50.812;4.422;2022-08-19T11:30:57;7.40;;;6.60;;
14484;SDS011;7328;50.812;4.422;2022-08-19T11:33:22;9.30;;;8.37;;
14484;SDS011;7328;50.812;4.422;2022-08-19T11:35:48;7.10;;;6.40;;
14484;SDS011;7328;50.812;4.422;2022-08-19T11:38:14;7.57;;;6.87;;
14484;SDS011;7328;50.812;4.422;2022-08-19T11:40:40;7.87;;;7.10;;
14484;SDS011;7328;50.812;4.422;2022-08-19T11:43:07;9.40;;;7.63;;
14484;SDS011;7328;50.812;4.422;2022-08-19T11:45:33;7.63;;;6.63;;
14484;SDS011;7328;50.812;4.422;2022-08-19T11:47:59;7.57;;;6.97;;
14484;SDS011;7328;50.812;4.422;2022-08-19T11:50:24;7.60;;;6.90;;
14484;SDS011;7328;50.812;4.422;2022-08-19T11:52:54;7.87;;;7.23;;
14484;SDS011;7328;50.812;4.422;2022-08-19T11:55:21;7.20;;;5.90;;
14484;SDS011;7328;50.812;4.422;2022-08-19T11:57:47;7.30;;;6.60;;
14484;SDS011;7328;50.812;4.422;2022-08-19T12:00:13;6.47;;;5.57;;
14484;SDS011;7328;50.812;4.422;2022-08-19T12:02:41;13.00;;;6.30;;
14484;SDS011;7328;50.812;4.422;2022-08-19T12:05:07;8.03;;;6.07;;
14484;SDS011;7328;50.812;4.422;2022-08-19T12:07:34;6.23;;;5.23;;
14484;SDS011;7328;50.812;4.422;2022-08-19T12:10:00;6.00;;;5.37;;
14484;SDS011;7328;50.812;4.422;2022-08-19T12:12:26;7.80;;;5.03;;
14484;SDS011;7328;50.812;4.422;2022-08-19T12:14:53;8.50;;;6.00;;
14484;SDS011;7328;50.812;4.422;2022-08-19T12:17:23;5.03;;;4.37;;
14484;SDS011;7328;50.812;4.422;2022-08-19T12:19:50;6.50;;;4.70;;
14484;SDS011;7328;50.812;4.422;2022-08-19T12:22:16;8.00;;;4.60;;
14484;SDS011;7328;50.812;4.422;2022-08-19T12:24:42;10.10;;;4.57;;
14484;SDS011;7328;50.812;4.422;2022-08-19T12:27:08;5.47;;;3.80;;
14484;SDS011;7328;50.812;4.422;2022-08-19T12:29:34;4.63;;;3.30;;
14484;SDS011;7328;50.812;4.422;2022-08-19T12:32:00;3.97;;;3.67;;
14484;SDS011;7328;50.812;4.422;2022-08-19T12:34:27;7.80;;;3.93;;
14484;SDS011;7328;50.812;4.422;2022-08-19T12:36:57;3.90;;;3.50;;
14484;SDS011;7328;50.812;4.422;2022-08-19T12:39:24;2.73;;;2.40;;
14484;SDS011;7328;50.812;4.422;2022-08-19T12:41:51;2.80;;;2.53;;
14484;SDS011;7328;50.812;4.422;2022-08-19T12:44:18;5.20;;;2.63;;
14484;SDS011;7328;50.812;4.422;2022-08-19T12:46:43;2.47;;;2.27;;
14484;SDS011;7328;50.812;4.422;2022-08-19T12:49:09;2.30;;;2.10;;
14484;SDS011;7328;50.812;4.422;2022-08-19T12:51:35;2.07;;;1.80;;
14484;SDS011;7328;50.812;4.422;2022-08-19T12:54:01;7.50;;;2.40;;
14484;SDS011;7328;50.812;4.422;2022-08-19T12:56:27;7.00;;;3.40;;
14484;SDS011;7328;50.812;4.422;2022-08-19T12:58:52;3.57;;;2.17;;
14484;SDS011;7328;50.812;4.422;2022-08-19T13:01:19;5.60;;;2.00;;
14484;SDS011;7328;50.812;4.422;2022-08-19T13:03:45;6.10;;;2.43;;
14484;SDS011;7328;50.812;4.422;2022-08-19T13:06:12;2.27;;;2.13;;
14484;SDS011;7328;50.812;4.422;2022-08-19T13:08:38;2.03;;;1.87;;
14484;SDS011;7328;50.812;4.422;2022-08-19T13:11:11;2.17;;;1.97;;
14484;SDS011;7328;50.812;4.422;2022-08-19T13:13:39;1.70;;;1.60;;
14484;SDS011;7328;50.812;4.422;2022-08-19T13:16:07;1.93;;;1.83;;
14484;SDS011;7328;50.812;4.422;2022-08-19T13:18:37;7.17;;;2.23;;
14484;SDS011;7328;50.812;4.422;2022-08-19T13:21:04;3.17;;;2.97;;
14484;SDS011;7328;50.812;4.422;2022-08-19T13:23:32;1.40;;;1.30;;
14484;SDS011;7328;50.812;4.422;2022-08-19T13:25:59;4.10;;;1.63;;
14484;SDS011;7328;50.812;4.422;2022-08-19T13:28:27;2.37;;;1.50;;
14484;SDS011;7328;50.812;4.422;2022-08-19T13:31:21;1.80;;;1.67;;
14484;SDS011;7328;50.812;4.422;2022-08-19T13:34:06;5.80;;;1.43;;
14484;SDS011;7328;50.812;4.422;2022-08-19T13:36:33;1.20;;;1.10;;
14484;SDS011;7328;50.812;4.422;2022-08-19T13:39:00;1.83;;;1.10;;
14484;SDS011;7328;50.812;4.422;2022-08-19T13:41:26;1.70;;;1.60;;
14484;SDS011;7328;50.812;4.422;2022-08-19T13:43:52;3.57;;;1.67;;
14484;SDS011;7328;50.812;4.422;2022-08-19T13:46:19;1.80;;;1.20;;
14484;SDS011;7328;50.812;4.422;2022-08-19T13:48:45;2.37;;;1.60;;
14484;SDS011;7328;50.812;4.422;2022-08-19T13:51:13;2.53;;;1.40;;
14484;SDS011;7328;50.812;4.422;2022-08-19T13:53:42;3.90;;;1.53;;
14484;SDS011;7328;50.812;4.422;2022-08-19T13:56:10;1.70;;;1.33;;
14484;SDS011;7328;50.812;4.422;2022-08-19T13:58:40;3.33;;;1.17;;
14484;SDS011;7328;50.812;4.422;2022-08-19T14:01:06;0.97;;;0.97;;
14484;SDS011;7328;50.812;4.422;2022-08-19T14:03:33;1.40;;;1.30;;
14484;SDS011;7328;50.812;4.422;2022-08-19T14:06:00;4.27;;;1.17;;
14484;SDS011;7328;50.812;4.422;2022-08-19T14:08:26;1.77;;;1.53;;
14484;SDS011;7328;50.812;4.422;2022-08-19T14:10:53;1.77;;;1.47;;
14484;SDS011;7328;50.812;4.422;2022-08-19T14:13:20;2.33;;;1.20;;
14484;SDS011;7328;50.812;4.422;2022-08-19T14:15:47;4.23;;;1.60;;
14484;SDS011;7328;50.812;4.422;2022-08-19T14:18:13;3.87;;;1.30;;
14484;SDS011;7328;50.812;4.422;2022-08-19T14:20:40;1.43;;;0.93;;
14484;SDS011;7328;50.812;4.422;2022-08-19T14:23:06;3.60;;;1.40;;
14484;SDS011;7328;50.812;4.422;2022-08-19T14:25:32;2.13;;;1.53;;
14484;SDS011;7328;50.812;4.422;2022-08-19T14:27:59;0.80;;;0.80;;
14484;SDS011;7328;50.812;4.422;2022-08-19T14:30:27;1.77;;;1.67;;
14484;SDS011;7328;50.812;4.422;2022-08-19T14:32:55;1.70;;;1.17;;
14484;SDS011;7328;50.812;4.422;2022-08-19T14:35:21;3.60;;;1.90;;
14484;SDS011;7328;50.812;4.422;2022-08-19T14:37:48;0.97;;;0.93;;
14484;SDS011;7328;50.812;4.422;2022-08-19T14:40:16;3.90;;;3.60;;
14484;SDS011;7328;50.812;4.422;2022-08-19T14:42:45;1.30;;;1.20;;
14484;SDS011;7328;50.812;4.422;2022-08-19T14:45:12;1.20;;;1.10;;
14484;SDS011;7328;50.812;4.422;2022-08-19T14:47:37;2.03;;;0.90;;
14484;SDS011;7328;50.812;4.422;2022-08-19T14:50:05;1.13;;;1.03;;
14484;SDS011;7328;50.812;4.422;2022-08-19T14:52:32;1.03;;;0.87;;
14484;SDS011;7328;50.812;4.422;2022-08-19T14:54:58;1.20;;;1.17;;
14484;SDS011;7328;50.812;4.422;2022-08-19T14:57:23;1.13;;;1.03;;
14484;SDS011;7328;50.812;4.422;2022-08-19T14:59:49;1.13;;;1.03;;
14484;SDS011;7328;50.812;4.422;2022-08-19T15:02:15;2.30;;;1.27;;
14484;SDS011;7328;50.812;4.422;2022-08-19T15:04:41;2.20;;;0.90;;
14484;SDS011;7328;50.812;4.422;2022-08-19T15:07:07;1.13;;;1.10;;